Time;durP1;ratioP1;P1;durP2;ratioP2;P2;SDS_P1;SDS_P2;PMS_P1;PMS_P2;Temp;Humidity;BMP_temperature;BMP_pressure;BME280_temperature;BME280_humidity;BME280_pressure;Samples;Min_cycle;Max_cycle;Signal;HPM_P1;HPM_P2
2023/10/14 00:01:34;;;;;;;12.27;0.77;;;;;;;-148.15;100.00;61821.78;4916245;29;20087;-92
2023/10/14 00:04:04;;;;;;;15.73;1.20;;;;;;;-148.15;100.00;61821.78;4932687;29;20492;-89
2023/10/14 00:06:32;;;;;;;4.60;0.65;;;;;;;-148.15;100.00;61821.78;4914931;29;20028;-92
2023/10/14 00:08:57;;;;;;;4.67;0.80;;;;;;;-148.15;100.00;61821.78;4915007;29;20515;-90
2023/10/14 00:11:39;;;;;;;8.02;0.60;;;;;;;-148.15;100.00;61821.78;4932677;29;20107;-91
2023/10/14 00:14:14;;;;;;;4.65;0.80;;;;;;;-148.15;100.00;61821.78;4913253;29;20028;-90
2023/10/14 00:16:42;;;;;;;8.40;0.80;;;;;;;-148.15;100.00;61821.78;4939133;29;20110;-90
2023/10/14 00:19:09;;;;;;;15.80;0.97;;;;;;;-148.15;100.00;61821.78;4931620;29;20123;-91
2023/10/14 00:21:35;;;;;;;2.70;0.50;;;;;;;-148.15;100.00;61821.78;4947083;29;20297;-92
2023/10/14 00:24:06;;;;;;;4.60;0.70;;;;;;;-148.15;100.00;61821.78;4948549;29;20126;-91
2023/10/14 00:26:32;;;;;;;7.55;0.68;;;;;;;-148.15;100.00;61821.78;4923252;29;20428;-92
2023/10/14 00:29:16;;;;;;;10.85;0.90;;;;;;;-148.15;100.00;61821.78;4931843;29;20042;-92
2023/10/14 00:31:43;;;;;;;6.97;0.70;;;;;;;-148.15;100.00;61821.78;4927331;29;20047;-91
2023/10/14 00:34:08;;;;;;;5.47;0.60;;;;;;;-148.15;100.00;61821.78;4932055;29;20044;-92
2023/10/14 00:36:34;;;;;;;3.13;0.60;;;;;;;-148.15;100.00;61821.78;4930066;29;20055;-93
2023/10/14 00:39:00;;;;;;;3.13;0.70;;;;;;;-148.15;100.00;61821.78;4931883;29;20032;-92
2023/10/14 00:41:26;;;;;;;2.28;0.60;;;;;;;-148.15;100.00;61821.78;4939408;29;20042;-92
2023/10/14 00:43:56;;;;;;;2.67;0.60;;;;;;;-148.15;100.00;61821.78;4938546;29;20487;-93
2023/10/14 00:46:23;;;;;;;4.38;0.77;;;;;;;-148.15;100.00;61821.78;4917343;29;20027;-93
2023/10/14 00:48:50;;;;;;;2.22;0.55;;;;;;;-148.15;100.00;61821.78;4936766;28;20035;-92
2023/10/14 00:51:19;;;;;;;2.50;0.82;;;;;;;-148.15;100.00;61821.78;4937415;29;20507;-94
2023/10/14 00:54:01;;;;;;;1.67;0.60;;;;;;;-148.15;100.00;61821.78;4945177;28;20083;-93
2023/10/14 00:56:29;;;;;;;4.13;0.60;;;;;;;-148.15;100.00;61821.78;4935014;29;20042;-92
2023/10/14 00:59:04;;;;;;;2.05;0.50;;;;;;;-148.15;100.00;61821.78;4922222;29;20483;-93
2023/10/14 01:01:31;;;;;;;2.57;0.63;;;;;;;-148.15;100.00;61821.78;4943123;29;20110;-93
2023/10/14 01:04:17;;;;;;;3.28;0.90;;;;;;;-148.15;100.00;61821.78;4933511;29;20099;-91
2023/10/14 01:07:13;;;;;;;4.60;1.10;;;;;;;-148.15;100.00;61821.78;5074028;23;20574;-91
2023/10/14 01:12:28;;;;;;;3.45;1.70;;;;;;;-148.15;100.00;61821.78;4956819;29;20047;-91
2023/10/14 01:14:58;;;;;;;2.80;1.90;;;;;;;-148.15;100.00;61821.78;4949428;29;20038;-91
2023/10/14 01:17:29;;;;;;;5.10;2.60;;;;;;;-148.15;100.00;61821.78;4945637;23;20091;-91
2023/10/14 01:19:59;;;;;;;7.37;2.27;;;;;;;-148.15;100.00;61821.78;4955567;28;20295;-91
2023/10/14 01:22:29;;;;;;;2.63;1.05;;;;;;;-148.15;100.00;61821.78;4962283;28;20030;-92
2023/10/14 01:25:19;;;;;;;4.10;1.08;;;;;;;-148.15;100.00;61821.78;4975240;28;20023;-91
2023/10/14 01:27:45;;;;;;;7.50;1.20;;;;;;;-148.15;100.00;61821.78;4967829;28;20073;-92
2023/10/14 01:30:26;;;;;;;6.70;0.90;;;;;;;-148.15;100.00;61821.78;4973277;28;20406;-93
2023/10/14 01:33:16;;;;;;;7.78;1.10;;;;;;;-148.15;100.00;61821.78;4972683;28;20073;-93
2023/10/14 01:35:45;;;;;;;7.93;0.90;;;;;;;-148.15;100.00;61821.78;4974083;28;20382;-93
2023/10/14 01:38:23;;;;;;;6.28;1.00;;;;;;;-148.15;100.00;61821.78;4956337;28;20374;-92
2023/10/14 01:40:49;;;;;;;8.18;1.00;;;;;;;-148.15;100.00;61821.78;4972976;28;20019;-92
2023/10/14 01:43:30;;;;;;;7.00;0.97;;;;;;;-148.15;100.00;61821.78;4974393;28;20122;-93
2023/10/14 01:46:10;;;;;;;6.07;1.08;;;;;;;-148.15;100.00;61821.78;4953994;28;20035;-93
2023/10/14 01:48:51;;;;;;;4.80;1.23;;;;;;;-148.15;100.00;61821.78;4975387;28;20039;-95
2023/10/14 01:51:16;;;;;;;3.57;0.87;;;;;;;-148.15;100.00;61821.78;4967524;28;20502;-93
2023/10/14 01:53:42;;;;;;;14.02;1.20;;;;;;;-148.15;100.00;61821.78;4974514;28;20058;-93
2023/10/14 01:56:21;;;;;;;9.53;1.20;;;;;;;-148.15;100.00;61821.78;4971979;28;20023;-92
2023/10/14 01:59:07;;;;;;;;;;;;;;;;;;;;;
2023/10/14 02:11:33;;;;;;;13.13;1.30;;;;;;;-148.15;100.00;61821.78;4992307;23;20047;-93
2023/10/14 02:14:07;;;;;;;13.27;1.60;;;;;;;-148.15;100.00;61821.78;4955121;29;20035;-93
2023/10/14 02:16:44;;;;;;;12.47;1.53;;;;;;;-148.15;100.00;61821.78;4952460;29;20310;-94
2023/10/14 02:19:36;;;;;;;13.48;1.80;;;;;;;-148.15;100.00;61821.78;4956132;29;20035;-93
2023/10/14 02:22:03;;;;;;;16.77;2.20;;;;;;;-148.15;100.00;61821.78;4918492;29;20308;-93
2023/10/14 02:24:29;;;;;;;14.35;1.63;;;;;;;-148.15;100.00;61821.78;4917333;29;20031;-94
2023/10/14 02:27:10;;;;;;;11.98;1.70;;;;;;;-148.15;100.00;61821.78;4934798;29;20031;-94
2023/10/14 02:29:35;;;;;;;14.07;1.80;;;;;;;-148.15;100.00;61821.78;4917145;29;20036;-93
2023/10/14 02:32:01;;;;;;;18.33;1.70;;;;;;;-148.15;100.00;61821.78;4927248;29;20315;-93
2023/10/14 02:34:27;;;;;;;15.97;1.90;;;;;;;-148.15;100.00;61821.78;4948630;29;20031;-93
2023/10/14 02:36:53;;;;;;;13.60;1.75;;;;;;;-148.15;100.00;61821.78;4909352;29;20116;-93
2023/10/14 02:39:27;;;;;;;9.27;1.83;;;;;;;-148.15;100.00;61821.78;4934486;29;20091;-94
2023/10/14 02:41:59;;;;;;;18.50;1.98;;;;;;;-148.15;100.00;61821.78;4917170;29;20542;-94
2023/10/14 02:44:30;;;;;;;15.80;2.17;;;;;;;-148.15;100.00;61821.78;4928011;29;20036;-94
2023/10/14 02:47:01;;;;;;;12.85;1.65;;;;;;;-148.15;100.00;61821.78;4946865;23;20047;-94
2023/10/14 03:46:42;;;;;;;12.68;1.55;;;;;;;-148.15;100.00;61821.78;5597325;23;20035;-92
2023/10/14 03:51:43;;;;;;;19.67;1.77;;;;;;;-148.15;100.00;61821.78;4999056;23;20055;-92
2023/10/14 03:54:23;;;;;;;13.17;1.80;;;;;;;-148.15;100.00;61821.78;4972229;28;20087;-92
2023/10/14 03:56:50;;;;;;;12.68;1.38;;;;;;;-148.15;100.00;61821.78;4974065;28;20019;-92
2023/10/14 03:59:26;;;;;;;15.00;1.90;;;;;;;-148.15;100.00;61821.78;4941994;29;20548;-92
2023/10/14 04:01:57;;;;;;;12.30;1.60;;;;;;;-148.15;100.00;61821.78;4947752;29;20058;-92
2023/10/14 04:04:24;;;;;;;18.38;1.95;;;;;;;-148.15;100.00;61821.78;4937668;29;20026;-92
2023/10/14 04:10:09;;;;;;;18.73;1.52;;;;;;;-148.15;100.00;61821.78;5018576;23;20034;-92
2023/10/14 04:12:39;;;;;;;17.60;2.37;;;;;;;-148.15;100.00;61821.78;4952993;29;20513;-91
2023/10/14 04:17:39;;;;;;;20.98;2.20;;;;;;;-148.15;100.00;61821.78;4957328;29;20427;-92
2023/10/14 04:20:21;;;;;;;21.67;2.10;;;;;;;-148.15;100.00;61821.78;4930795;29;20024;-92
2023/10/14 04:22:47;;;;;;;13.93;1.92;;;;;;;-148.15;100.00;61821.78;4927113;29;20035;-91
2023/10/14 04:30:44;;;;;;;14.45;1.83;;;;;;;-148.15;100.00;61821.78;4957437;29;20028;-92
2023/10/14 04:35:56;;;;;;;16.30;2.08;;;;;;;-148.15;100.00;61821.78;4955411;29;20047;-91
2023/10/14 04:38:28;;;;;;;11.37;1.60;;;;;;;-148.15;100.00;61821.78;4943319;29;20047;-91
2023/10/14 04:40:58;;;;;;;13.27;1.80;;;;;;;-148.15;100.00;61821.78;4929805;29;20299;-90
2023/10/14 04:45:54;;;;;;;13.50;1.55;;;;;;;-148.15;100.00;61821.78;4932367;29;20039;-91
2023/10/14 04:51:08;;;;;;;18.30;2.17;;;;;;;-148.15;100.00;61821.78;4963274;23;20879;-91
2023/10/14 04:57:22;;;;;;;17.23;1.77;;;;;;;-148.15;100.00;61821.78;4957661;29;20102;-96
2023/10/14 05:00:41;;;;;;;17.20;2.20;;;;;;;-148.15;100.00;61821.78;4938767;29;20323;-94
2023/10/14 05:03:23;;;;;;;8.93;1.83;;;;;;;-148.15;100.00;61821.78;4937039;29;20028;-90
2023/10/14 05:06:14;;;;;;;21.15;2.03;;;;;;;-148.15;100.00;61821.78;4935063;29;20015;-92
2023/10/14 05:08:56;;;;;;;16.33;2.65;;;;;;;-148.15;100.00;61821.78;4938832;29;20028;-90
2023/10/14 05:11:25;;;;;;;15.05;2.30;;;;;;;-148.15;100.00;61821.78;4947827;29;20062;-89
2023/10/14 05:14:14;;;;;;;21.75;2.00;;;;;;;-148.15;100.00;61821.78;4940279;29;20055;-88
2023/10/14 05:17:32;;;;;;;20.93;2.00;;;;;;;-148.15;100.00;61821.78;4938966;29;20064;-88
2023/10/14 05:19:30;;;;;;;19.58;1.95;;;;;;;-148.15;100.00;61821.78;4933147;29;20035;-92
2023/10/14 05:22:10;;;;;;;15.95;1.70;;;;;;;-148.15;100.00;61821.78;4934239;29;20046;-92
2023/10/14 05:24:36;;;;;;;20.38;2.00;;;;;;;-148.15;100.00;61821.78;4938328;29;20032;-91
2023/10/14 05:27:02;;;;;;;15.88;2.03;;;;;;;-148.15;100.00;61821.78;4946766;29;20231;-90
2023/10/14 05:29:28;;;;;;;18.10;2.00;;;;;;;-148.15;100.00;61821.78;4949250;29;20211;-91
2023/10/14 05:32:18;;;;;;;18.45;2.20;;;;;;;-148.15;100.00;61821.78;4917184;29;20043;-90
2023/10/14 05:34:43;;;;;;;13.48;2.33;;;;;;;-148.15;100.00;61821.78;4918918;29;20500;-90
2023/10/14 05:37:12;;;;;;;23.23;2.13;;;;;;;-148.15;100.00;61821.78;4932628;29;20028;-91
2023/10/14 05:42:16;;;;;;;14.67;2.17;;;;;;;-148.15;100.00;61821.78;4906227;23;20066;-90
2023/10/14 05:44:47;;;;;;;19.57;2.40;;;;;;;-148.15;100.00;61821.78;4928021;29;20293;-90
2023/10/14 05:47:19;;;;;;;24.63;2.50;;;;;;;-148.15;100.00;61821.78;4950471;28;20392;-89
2023/10/14 05:49:45;;;;;;;11.52;1.60;;;;;;;-148.15;100.00;61821.78;4930236;29;20043;-90
2023/10/14 05:52:13;;;;;;;17.95;2.30;;;;;;;-148.15;100.00;61821.78;4935610;29;20031;-94
2023/10/14 05:54:42;;;;;;;22.75;2.47;;;;;;;-148.15;100.00;61821.78;4936101;29;20051;-88
2023/10/14 05:57:08;;;;;;;30.83;2.65;;;;;;;-148.15;100.00;61821.78;4931710;29;20429;-87
2023/10/14 05:59:36;;;;;;;15.03;1.93;;;;;;;-148.15;100.00;61821.78;4916114;29;20596;-87
2023/10/14 06:02:08;;;;;;;21.75;2.83;;;;;;;-148.15;100.00;61821.78;4932318;29;20082;-87
2023/10/14 06:04:39;;;;;;;21.52;3.15;;;;;;;-148.15;100.00;61821.78;4934850;29;20034;-87
2023/10/14 06:07:08;;;;;;;20.80;2.60;;;;;;;-148.15;100.00;61821.78;4932682;29;20067;-87
2023/10/14 06:09:36;;;;;;;17.13;2.22;;;;;;;-148.15;100.00;61821.78;4935149;29;20042;-88
2023/10/14 06:12:05;;;;;;;18.13;2.35;;;;;;;-148.15;100.00;61821.78;4935837;29;20048;-88
2023/10/14 06:14:32;;;;;;;20.40;2.28;;;;;;;-148.15;100.00;61821.78;4941556;29;20127;-88
2023/10/14 06:16:57;;;;;;;15.90;2.50;;;;;;;-148.15;100.00;61821.78;4938062;29;20059;-93
2023/10/14 06:19:24;;;;;;;15.47;2.50;;;;;;;-148.15;100.00;61821.78;4944976;28;20711;-92
2023/10/14 06:21:49;;;;;;;20.23;2.60;;;;;;;-148.15;100.00;61821.78;4937238;29;20031;-93
2023/10/14 06:24:15;;;;;;;14.70;2.27;;;;;;;-148.15;100.00;61821.78;4936637;29;20031;-92
2023/10/14 06:26:47;;;;;;;20.25;2.40;;;;;;;-148.15;100.00;61821.78;4953227;29;20040;-94
2023/10/14 06:29:13;;;;;;;13.35;2.28;;;;;;;-148.15;100.00;61821.78;4933313;29;20027;-94
2023/10/14 06:35:20;;;;;;;14.63;2.20;;;;;;;-148.15;100.00;61821.78;4887376;29;20908;-93
2023/10/14 06:37:47;;;;;;;18.35;2.47;;;;;;;-148.15;100.00;61821.78;4880708;29;20116;-94
2023/10/14 06:40:14;;;;;;;15.65;2.10;;;;;;;-148.15;100.00;61821.78;4904572;29;20114;-93
2023/10/14 06:42:43;;;;;;;21.00;2.73;;;;;;;-148.15;100.00;61821.78;4921647;29;20116;-93
2023/10/14 07:10:50;;;;;;;16.20;1.92;;;;;;;-148.15;100.00;61821.78;4891818;29;20852;-90
2023/10/14 10:02:30;;;;;;;10.55;1.80;;;;;;;-148.15;100.00;61821.78;5710280;23;20055;-95
2023/10/14 10:05:19;;;;;;;13.13;1.53;;;;;;;-148.15;100.00;61821.78;4965940;29;20031;-94
2023/10/14 10:27:04;;;;;;;16.23;2.03;;;;;;;-148.15;100.00;61821.78;5635722;23;20389;-96
2023/10/14 10:29:33;;;;;;;13.40;1.48;;;;;;;-148.15;100.00;61821.78;5002309;23;20022;-94
2023/10/14 10:40:43;;;;;;;10.25;2.03;;;;;;;-148.15;100.00;61821.78;4978621;28;20082;-94
2023/10/14 10:43:53;;;;;;;9.90;1.83;;;;;;;-148.15;100.00;61821.78;4985818;28;20023;-93
2023/10/14 10:46:29;;;;;;;9.52;1.30;;;;;;;-148.15;100.00;61821.78;4982749;28;20057;-92
2023/10/14 10:48:54;;;;;;;12.07;1.10;;;;;;;-148.15;100.00;61821.78;5016666;23;20054;-92
2023/10/14 10:51:21;;;;;;;9.27;1.50;;;;;;;-148.15;100.00;61821.78;4988663;28;20027;-93
2023/10/14 10:54:11;;;;;;;10.13;1.42;;;;;;;-148.15;100.00;61821.78;4985482;28;20034;-95
2023/10/14 10:59:40;;;;;;;10.68;1.67;;;;;;;-148.15;100.00;61821.78;4990770;23;20063;-94
2023/10/14 11:02:24;;;;;;;10.87;1.73;;;;;;;-148.15;100.00;61821.78;4958523;28;20058;-94
2023/10/14 11:04:49;;;;;;;6.43;1.33;;;;;;;-148.15;100.00;61821.78;4962609;28;20282;-95
2023/10/14 11:07:27;;;;;;;10.88;1.42;;;;;;;-148.15;100.00;61821.78;4956253;28;20031;-91
2023/10/14 11:19:20;;;;;;;6.40;1.73;;;;;;;-148.15;100.00;61821.78;5990799;23;20963;-95
2023/10/14 11:24:21;;;;;;;10.60;1.60;;;;;;;-148.15;100.00;61821.78;5097833;23;20248;-94
2023/10/14 11:26:47;;;;;;;9.82;1.48;;;;;;;-148.15;100.00;61821.78;4911536;29;20044;-91
2023/10/14 11:29:13;;;;;;;9.13;1.50;;;;;;;-148.15;100.00;61821.78;4934496;29;20175;-95
2023/10/14 11:31:42;;;;;;;5.85;1.27;;;;;;;-148.15;100.00;61821.78;4937463;29;20090;-89
2023/10/14 11:34:11;;;;;;;7.88;1.60;;;;;;;-148.15;100.00;61821.78;4931906;29;20166;-89
2023/10/14 11:36:43;;;;;;;8.10;1.70;;;;;;;-148.15;100.00;61821.78;4941482;29;20051;-91
2023/10/14 11:39:13;;;;;;;9.10;1.90;;;;;;;-148.15;100.00;61821.78;4940929;29;20111;-92
2023/10/14 11:41:43;;;;;;;6.03;1.47;;;;;;;-148.15;100.00;61821.78;4937834;29;20284;-93
2023/10/14 11:44:08;;;;;;;11.65;1.60;;;;;;;-148.15;100.00;61821.78;4943640;29;20028;-94
2023/10/14 11:46:39;;;;;;;10.60;1.67;;;;;;;-148.15;100.00;61821.78;4952700;29;20061;-94
2023/10/14 11:49:10;;;;;;;8.00;1.80;;;;;;;-148.15;100.00;61821.78;5001564;23;20047;-95
2023/10/14 11:51:46;;;;;;;11.55;1.75;;;;;;;-148.15;100.00;61821.78;4959526;28;20128;-91
2023/10/14 11:54:11;;;;;;;9.85;1.80;;;;;;;-148.15;100.00;61821.78;4974747;29;20042;-92
2023/10/14 11:56:40;;;;;;;7.77;1.80;;;;;;;-148.15;100.00;61821.78;4955757;29;20039;-95
2023/10/14 11:59:25;;;;;;;11.23;1.90;;;;;;;15.26;82.96;101320.53;5188156;27;20160;-95
2023/10/14 12:02:08;;;;;;;10.80;1.77;;;;;;;14.80;93.95;101299.94;5097259;27;20409;-94
2023/10/14 12:04:34;;;;;;;10.45;1.90;;;;;;;14.31;100.00;101322.91;5089338;28;20387;-94
2023/10/14 12:07:03;;;;;;;12.87;1.77;;;;;;;13.39;100.00;101281.31;5083879;28;20025;-93
2023/10/14 12:09:28;;;;;;;12.88;1.92;;;;;;;13.00;100.00;101297.88;5085125;28;20111;-92
2023/10/14 12:11:53;;;;;;;14.03;1.80;;;;;;;12.86;100.00;101322.56;5074295;28;20518;-88
2023/10/14 12:14:19;;;;;;;9.97;1.57;;;;;;;12.75;100.00;101326.28;5067929;28;20748;-91
2023/10/14 12:17:00;;;;;;;5.87;1.30;;;;;;;12.55;100.00;101279.38;5083987;22;22203;-90
2023/10/14 12:19:58;;;;;;;9.27;1.90;;;;;;;13.00;100.00;101301.38;5050798;28;20044;-89
2023/10/14 12:22:24;;;;;;;9.07;1.52;;;;;;;13.65;100.00;101289.50;4980409;28;20166;-87
2023/10/14 12:28:38;;;;;;;11.07;1.63;;;;;;;14.67;97.75;101284.31;4971296;28;20042;-87
2023/10/14 12:32:12;;;;;;;6.57;1.30;;;;;;;14.68;93.77;101321.81;4918597;29;20303;-89
2023/10/14 12:34:43;;;;;;;7.13;1.25;;;;;;;14.23;91.99;101315.38;4891935;29;20041;-87
2023/10/14 12:37:31;;;;;;;9.77;1.25;;;;;;;13.68;88.90;101297.03;4901458;29;20039;-89
2023/10/14 12:40:11;;;;;;;7.80;1.50;;;;;;;13.23;84.54;101301.19;4984711;28;20035;-88
2023/10/14 12:42:46;;;;;;;7.97;1.50;;;;;;;13.22;90.50;101331.84;4985730;28;20336;-92
2023/10/14 12:45:13;;;;;;;6.65;1.40;;;;;;;13.12;90.67;101329.94;5010324;28;20040;-91
2023/10/14 12:47:46;;;;;;;9.32;1.70;;;;;;;13.10;92.19;101327.53;5034958;28;20030;-90
2023/10/14 12:50:13;;;;;;;8.77;1.30;;;;;;;13.12;93.63;101314.63;5047200;28;20033;-92
2023/10/14 12:52:41;;;;;;;12.37;1.17;;;;;;;13.18;93.16;101347.72;5046184;28;20406;-90
2023/10/14 12:55:17;;;;;;;10.50;1.63;;;;;;;13.32;90.38;101340.78;5041964;28;20022;-88
2023/10/14 12:57:42;;;;;;;8.52;1.35;;;;;;;13.62;92.67;101339.28;5048420;28;20036;-91
2023/10/14 13:00:17;;;;;;;8.80;1.67;;;;;;;14.04;89.54;101345.56;5048366;28;20025;-91
2023/10/14 13:02:45;;;;;;;7.40;1.30;;;;;;;14.23;84.46;101353.13;5043260;28;20384;-90
2023/10/14 13:05:18;;;;;;;9.30;1.20;;;;;;;14.17;86.77;101357.69;5035387;28;20045;-91
2023/10/14 13:07:44;;;;;;;9.40;1.35;;;;;;;14.07;83.12;101354.97;5042776;28;20511;-86
2023/10/14 13:10:09;;;;;;;5.13;0.98;;;;;;;13.95;78.62;101382.19;5047612;28;20072;-86
2023/10/14 13:12:35;;;;;;;7.23;1.20;;;;;;;13.92;78.66;101380.84;5038964;28;20079;-86
2023/10/14 13:15:05;;;;;;;8.60;1.30;;;;;;;14.03;82.68;101392.44;5031396;28;20022;-85
2023/10/14 13:17:35;;;;;;;7.10;1.00;;;;;;;14.15;81.76;101399.44;5026216;28;20388;-89
2023/10/14 13:20:01;;;;;;;6.15;1.10;;;;;;;14.12;83.44;101414.28;5034134;28;20042;-92
2023/10/14 13:22:26;;;;;;;3.10;0.93;;;;;;;14.04;82.80;101406.72;5031819;28;20087;-90
2023/10/14 13:24:51;;;;;;;5.10;1.43;;;;;;;14.01;85.83;101399.16;5021247;28;20041;-90
2023/10/14 13:27:17;;;;;;;9.30;1.60;;;;;;;14.16;87.68;101393.00;5023422;28;20292;-88
2023/10/14 13:29:45;;;;;;;4.30;1.10;;;;;;;14.30;87.92;101396.78;5033640;28;20392;-89
2023/10/14 13:32:14;;;;;;;8.73;1.63;;;;;;;14.41;83.79;101402.19;5035698;28;20017;-88
2023/10/14 13:34:39;;;;;;;4.57;1.17;;;;;;;14.62;83.22;101402.97;5031479;28;20109;-90
2023/10/14 13:37:05;;;;;;;7.53;1.50;;;;;;;14.81;82.45;101401.38;5037185;28;20103;-89
2023/10/14 13:39:34;;;;;;;6.83;1.17;;;;;;;14.86;82.81;101402.44;5041327;28;20025;-89
2023/10/14 13:42:00;;;;;;;9.05;1.58;;;;;;;14.69;80.93;101406.25;5043042;28;20039;-90
2023/10/14 13:44:25;;;;;;;6.07;1.30;;;;;;;14.44;81.04;101401.63;5039002;28;20025;-88
2023/10/14 13:46:51;;;;;;;4.90;1.10;;;;;;;14.32;84.19;101404.59;5025627;28;20022;-89
2023/10/14 13:49:23;;;;;;;5.30;1.10;;;;;;;14.18;84.69;101409.69;5043353;28;20116;-89
2023/10/14 13:51:54;;;;;;;11.48;1.42;;;;;;;14.05;82.95;101409.16;5036756;28;20057;-88
2023/10/14 13:54:20;;;;;;;9.45;1.45;;;;;;;14.06;86.03;101413.44;5027369;28;20014;-89
2023/10/14 13:56:45;;;;;;;12.73;1.50;;;;;;;14.31;89.09;101409.16;5045879;28;20053;-88
2023/10/14 13:59:10;;;;;;;5.20;1.10;;;;;;;14.61;87.28;101412.94;5017994;28;20037;-86
2023/10/14 14:01:36;;;;;;;10.10;1.50;;;;;;;14.60;82.49;101410.53;5025862;28;20110;-87
2023/10/14 14:04:04;;;;;;;7.50;1.20;;;;;;;14.39;85.35;101446.38;5052645;28;20050;-88
2023/10/14 14:06:29;;;;;;;5.65;1.20;;;;;;;14.00;80.43;101427.16;5048715;28;20037;-87
2023/10/14 14:08:55;;;;;;;8.43;1.10;;;;;;;13.78;82.50;101434.41;5054593;28;20021;-87
2023/10/14 14:11:23;;;;;;;4.18;1.00;;;;;;;13.67;84.01;101450.78;5053627;28;20025;-88
2023/10/14 14:13:49;;;;;;;3.17;0.67;;;;;;;13.41;82.42;101440.72;5055087;28;20061;-88
2023/10/14 14:16:14;;;;;;;3.93;0.80;;;;;;;13.05;84.96;101418.97;5052938;28;20388;-88
2023/10/14 14:18:40;;;;;;;3.45;0.98;;;;;;;12.69;94.06;101430.28;5037024;28;20041;-88
2023/10/14 14:21:05;;;;;;;2.53;0.80;;;;;;;12.45;86.08;101442.44;5027497;28;20025;-87
2023/10/14 14:23:32;;;;;;;3.83;0.70;;;;;;;12.40;89.89;101429.78;5018676;28;20093;-89
2023/10/14 14:25:57;;;;;;;3.33;1.00;;;;;;;12.57;90.26;101446.59;5001919;28;20080;-87
2023/10/14 14:28:23;;;;;;;5.17;0.80;;;;;;;12.67;91.17;101445.03;5020935;28;20038;-88
2023/10/14 14:30:49;;;;;;;6.40;0.97;;;;;;;12.73;90.07;101454.78;5013640;28;20301;-89
2023/10/14 14:33:15;;;;;;;4.68;0.90;;;;;;;12.73;93.82;101452.09;5039096;28;20014;-90
2023/10/14 14:35:41;;;;;;;5.43;1.10;;;;;;;12.74;97.01;101459.09;5022322;28;20113;-90
2023/10/14 14:38:08;;;;;;;5.38;0.80;;;;;;;12.60;96.47;101447.94;5014507;28;20021;-90
2023/10/14 14:40:40;;;;;;;4.32;1.33;;;;;;;12.55;98.24;101467.53;5014823;28;20486;-89
2023/10/14 14:43:06;;;;;;;8.88;1.50;;;;;;;12.36;100.00;101477.84;5025278;28;20639;-90
2023/10/14 14:45:35;;;;;;;4.87;1.03;;;;;;;12.18;99.60;101464.75;5035667;28;20028;-89
2023/10/14 14:48:01;;;;;;;7.50;1.10;;;;;;;12.06;99.66;101468.41;5041824;28;20025;-89
2023/10/14 14:50:29;;;;;;;9.77;1.50;;;;;;;11.91;100.00;101457.47;5038592;28;20035;-89
2023/10/14 14:52:59;;;;;;;5.40;1.10;;;;;;;11.95;98.53;101463.97;5050209;28;20299;-86
2023/10/14 14:55:26;;;;;;;8.25;1.45;;;;;;;12.00;98.25;101471.28;5052143;28;20032;-87
2023/10/14 14:57:54;;;;;;;6.50;0.95;;;;;;;11.96;99.49;101469.06;5047844;28;20025;-88
2023/10/14 15:00:27;;;;;;;3.85;0.93;;;;;;;11.93;99.09;101469.56;5050890;28;20464;-88
2023/10/14 15:03:02;;;;;;;7.57;1.23;;;;;;;11.97;96.79;101473.38;5051638;28;20025;-84
2023/10/14 15:05:41;;;;;;;10.38;1.50;;;;;;;11.94;98.28;101468.50;5037309;28;20071;-86
2023/10/14 15:08:10;;;;;;;9.57;1.30;;;;;;;11.92;97.35;101485.94;5012239;28;20037;-85
2023/10/14 15:10:37;;;;;;;6.80;1.20;;;;;;;11.86;100.00;101468.97;5022952;28;20292;-88
2023/10/14 15:13:04;;;;;;;6.20;1.40;;;;;;;11.84;100.00;101472.94;5031062;28;20497;-87
2023/10/14 15:15:30;;;;;;;6.90;0.93;;;;;;;11.75;100.00;101467.19;5026508;28;20554;-88
2023/10/14 15:17:55;;;;;;;4.87;1.13;;;;;;;11.73;100.00;101475.50;5032048;28;20022;-87
2023/10/14 15:20:22;;;;;;;4.88;1.02;;;;;;;11.61;100.00;101472.94;5030640;28;20025;-87
2023/10/14 15:22:51;;;;;;;7.07;1.30;;;;;;;11.58;99.14;101473.44;5021418;28;20615;-89
2023/10/14 15:25:19;;;;;;;7.07;1.23;;;;;;;11.54;94.38;101480.34;5026536;28;20083;-88
2023/10/14 15:27:45;;;;;;;4.28;1.45;;;;;;;11.46;91.60;101464.69;5029698;28;20037;-89
2023/10/14 15:30:16;;;;;;;6.40;1.10;;;;;;;11.43;92.02;101470.56;5031616;28;20026;-88
2023/10/14 15:32:48;;;;;;;7.43;1.25;;;;;;;11.44;92.26;101481.03;5029501;28;20045;-88
2023/10/14 15:35:15;;;;;;;4.18;0.98;;;;;;;11.33;92.58;101476.59;5029365;28;20030;-90
2023/10/14 15:37:45;;;;;;;12.07;1.30;;;;;;;11.32;93.93;101477.66;5442469;23;20149;-90
2023/10/14 15:40:11;;;;;;;6.90;0.93;;;;;;;11.24;93.45;101480.72;5065845;28;20482;-89
2023/10/14 15:42:37;;;;;;;5.50;1.02;;;;;;;11.22;93.88;101489.03;5063161;28;20079;-89
2023/10/14 15:45:12;;;;;;;6.30;1.00;;;;;;;11.18;92.69;101494.09;5071161;28;20052;-90
2023/10/14 15:47:38;;;;;;;8.90;1.10;;;;;;;11.11;91.89;101485.38;5069537;28;20025;-90
2023/10/14 15:50:05;;;;;;;4.77;1.03;;;;;;;11.09;91.00;101497.44;5057689;28;20036;-91
2023/10/14 15:52:30;;;;;;;7.22;1.42;;;;;;;10.98;95.11;101496.47;5069441;28;20048;-88
2023/10/14 15:54:55;;;;;;;8.77;1.20;;;;;;;10.94;94.85;101504.19;5075494;28;20039;-88
2023/10/14 15:57:21;;;;;;;4.80;0.80;;;;;;;10.90;94.77;101503.84;5058757;28;20416;-90
2023/10/14 15:59:47;;;;;;;6.78;1.00;;;;;;;10.81;96.40;101491.06;5061101;28;20025;-91
2023/10/14 16:02:12;;;;;;;5.70;1.10;;;;;;;10.82;95.88;101506.94;5058378;28;20106;-88
2023/10/14 16:04:37;;;;;;;6.07;1.07;;;;;;;10.70;95.07;101501.66;5065188;28;20032;-91
2023/10/14 16:07:03;;;;;;;5.23;1.13;;;;;;;10.68;100.00;101495.72;5066209;28;20032;-90
2023/10/14 16:09:28;;;;;;;6.07;1.20;;;;;;;10.58;98.70;101496.34;5069554;28;20143;-90
2023/10/14 16:11:54;;;;;;;8.67;1.17;;;;;;;10.58;98.60;101506.25;5070380;28;20055;-88
2023/10/14 16:14:20;;;;;;;5.70;1.08;;;;;;;10.44;98.46;101511.91;5058855;28;20049;-89
2023/10/14 16:16:47;;;;;;;5.23;0.80;;;;;;;10.43;98.14;101510.25;5066552;28;20033;-90
2023/10/14 16:19:17;;;;;;;3.80;0.90;;;;;;;10.44;99.41;101513.78;5061076;28;20441;-91
2023/10/14 16:21:45;;;;;;;6.85;0.98;;;;;;;10.38;100.00;101514.69;5059295;28;20453;-93
2023/10/14 16:24:12;;;;;;;5.40;1.05;;;;;;;10.37;100.00;101521.94;5066023;28;20456;-95
2023/10/14 16:26:37;;;;;;;4.03;0.98;;;;;;;10.26;100.00;101526.28;5066023;28;20021;-92
2023/10/14 16:29:03;;;;;;;5.00;1.17;;;;;;;10.21;100.00;101536.09;5066175;28;20039;-94
2023/10/14 16:31:31;;;;;;;3.88;1.23;;;;;;;10.13;100.00;101537.28;5065730;28;20028;-88
2023/10/14 16:33:57;;;;;;;8.70;1.60;;;;;;;10.02;100.00;101538.09;5067431;28;20070;-92
2023/10/14 16:36:26;;;;;;;10.80;1.93;;;;;;;9.92;100.00;101536.03;5066870;28;20784;-90
2023/10/14 16:38:53;;;;;;;8.23;1.70;;;;;;;9.86;100.00;101540.47;5071645;28;20037;-94
2023/10/14 16:41:18;;;;;;;7.88;1.60;;;;;;;9.76;100.00;101543.72;5059399;28;20029;-93
2023/10/14 16:43:44;;;;;;;12.05;1.63;;;;;;;9.75;100.00;101557.34;5074131;28;20051;-91
2023/10/14 16:49:04;;;;;;;8.40;1.45;;;;;;;9.64;100.00;101572.38;5019603;28;20046;-91
2023/10/14 16:57:17;;;;;;;7.30;1.30;;;;;;;9.44;100.00;101538.75;5012394;28;20316;-92
2023/10/14 16:59:48;;;;;;;8.43;1.60;;;;;;;9.40;100.00;101525.00;5010300;28;20026;-89
2023/10/14 17:02:27;;;;;;;5.18;1.05;;;;;;;9.62;100.00;101563.75;5000382;28;20600;-92
2023/10/14 17:05:46;;;;;;;7.43;1.15;;;;;;;9.67;100.00;101577.25;5014936;28;20046;-94
2023/10/14 17:08:06;;;;;;;5.97;1.60;;;;;;;9.44;100.00;101560.16;5015676;28;20097;-95
2023/10/14 17:16:32;;;;;;;8.37;1.77;;;;;;;9.06;100.00;101572.06;5343620;22;20110;-96
2023/10/14 17:18:57;;;;;;;17.63;5.63;;;;;;;9.09;100.00;101595.69;5086472;28;20464;-96
2023/10/14 17:21:23;;;;;;;13.75;4.72;;;;;;;8.92;100.00;101596.34;5089105;28;20017;-96
2023/10/14 17:23:58;;;;;;;10.67;3.63;;;;;;;8.59;100.00;101581.56;5076245;28;20029;-93
2023/10/14 17:28:59;;;;;;;10.65;2.53;;;;;;;8.74;100.00;101626.59;4784713;26;20077;-93
2023/10/14 17:31:25;;;;;;;6.93;2.17;;;;;;;8.68;100.00;101635.50;5016404;28;20034;-94